createdAt,value
2019-04-04T00:01:52.539Z,9.30
2019-04-04T00:04:22.798Z,9.20
2019-04-04T00:06:53.127Z,9.30
2019-04-04T00:09:23.296Z,9.20
2019-04-04T00:11:53.606Z,9.20
2019-04-04T00:14:23.763Z,9.30
2019-04-04T00:16:53.928Z,8.90
2019-04-04T00:19:24.113Z,8.90
2019-04-04T00:21:54.280Z,8.70
2019-04-04T00:24:24.571Z,8.90
2019-04-04T00:26:54.722Z,9.00
2019-04-04T00:29:24.902Z,9.10
2019-04-04T00:31:55.268Z,8.90
2019-04-04T00:34:27.766Z,8.70
2019-04-04T00:36:57.384Z,8.90
2019-04-04T00:39:27.630Z,9.00
2019-04-04T00:41:57.822Z,9.00
2019-04-04T00:44:28.009Z,8.70
2019-04-04T00:46:58.226Z,8.90
2019-04-04T00:49:28.389Z,8.70
2019-04-04T00:51:58.519Z,9.00
2019-04-04T00:54:28.717Z,9.00
2019-04-04T00:56:58.956Z,8.90
2019-04-04T00:59:29.191Z,9.00
2019-04-04T01:01:59.352Z,8.90
2019-04-04T01:04:31.145Z,9.00
2019-04-04T01:07:02.979Z,8.90
2019-04-04T01:09:33.144Z,9.00
2019-04-04T01:12:03.289Z,8.90
2019-04-04T01:14:33.418Z,9.10
2019-04-04T01:17:04.179Z,9.20
2019-04-04T01:19:35.063Z,9.20
2019-04-04T01:22:05.261Z,9.20
2019-04-04T01:24:35.428Z,9.10
2019-04-04T01:27:06.349Z,9.10
2019-04-04T01:29:37.168Z,9.00
2019-04-04T01:32:07.332Z,8.90
2019-04-04T01:34:37.514Z,8.90
2019-04-04T01:37:07.655Z,8.90
2019-04-04T01:39:37.829Z,9.00
2019-04-04T01:42:07.997Z,8.90
2019-04-04T01:44:38.264Z,8.50
2019-04-04T01:47:08.510Z,8.70
2019-04-04T01:49:38.681Z,8.80
2019-04-04T01:52:08.856Z,8.80
2019-04-04T01:54:39.064Z,8.80
2019-04-04T01:57:09.228Z,8.00
2019-04-04T01:59:39.410Z,8.20
2019-04-04T02:02:09.563Z,8.20
2019-04-04T02:04:39.740Z,8.50
2019-04-04T02:07:09.993Z,8.70
2019-04-04T02:09:40.170Z,8.60
2019-04-04T02:12:10.405Z,8.50
2019-04-04T02:14:42.891Z,8.60
2019-04-04T02:17:12.563Z,8.70
2019-04-04T02:19:42.806Z,8.20
2019-04-04T02:22:12.957Z,8.40
2019-04-04T02:24:43.148Z,8.50
2019-04-04T02:27:13.300Z,8.50
2019-04-04T02:29:43.486Z,8.50
2019-04-04T02:32:15.755Z,8.60
2019-04-04T02:34:45.917Z,8.70
2019-04-04T02:37:16.079Z,8.70
2019-04-04T02:39:46.464Z,8.60
2019-04-04T02:42:20.943Z,8.50
2019-04-04T02:44:48.545Z,8.50
2019-04-04T02:47:18.784Z,8.50
2019-04-04T02:49:48.956Z,8.30
2019-04-04T02:52:19.143Z,8.40
2019-04-04T02:54:49.308Z,8.50
2019-04-04T02:57:19.460Z,8.60
2019-04-04T02:59:52.803Z,8.60
2019-04-04T03:02:21.696Z,8.60
2019-04-04T03:04:51.872Z,8.60
2019-04-04T03:07:22.033Z,8.60
2019-04-04T03:09:52.257Z,8.50
2019-04-04T03:12:25.652Z,8.40
2019-04-04T03:14:54.400Z,8.40
2019-04-04T03:17:24.574Z,8.50
2019-04-04T03:19:54.819Z,8.50
2019-04-04T03:22:27.575Z,8.70
2019-04-04T03:24:56.909Z,8.70
2019-04-04T03:27:27.382Z,8.70
2019-04-04T03:29:57.637Z,8.70
2019-04-04T03:32:27.869Z,8.70
2019-04-04T03:34:58.233Z,8.50
2019-04-04T03:37:28.463Z,8.50
2019-04-04T03:39:58.784Z,8.50
2019-04-04T03:42:28.969Z,8.50
2019-04-04T03:44:59.151Z,8.50
2019-04-04T03:47:29.337Z,8.50
2019-04-04T03:49:59.485Z,8.50
2019-04-04T03:52:29.659Z,8.50
2019-04-04T03:54:59.894Z,8.50
2019-04-04T03:57:30.344Z,8.40
2019-04-04T04:00:05.473Z,8.50
2019-04-04T04:02:32.472Z,8.50
2019-04-04T04:05:02.807Z,8.60
2019-04-04T04:07:32.985Z,8.60
2019-04-04T04:10:03.287Z,8.50
2019-04-04T04:12:33.503Z,8.50
2019-04-04T04:15:03.904Z,8.50
2019-04-04T04:17:36.213Z,8.50
2019-04-04T04:20:06.179Z,8.40
2019-04-04T04:22:36.386Z,8.40
2019-04-04T04:25:06.713Z,8.50
2019-04-04T04:27:36.962Z,8.50
2019-04-04T04:30:08.086Z,8.40
2019-04-04T04:32:38.382Z,8.40
2019-04-04T04:35:09.215Z,8.50
2019-04-04T04:37:39.517Z,8.40
2019-04-04T04:40:13.902Z,8.50
2019-04-04T04:42:41.834Z,8.50
2019-04-04T04:45:12.530Z,8.40
2019-04-04T04:47:42.862Z,8.40
2019-04-04T04:50:13.171Z,8.30
2019-04-04T04:52:46.575Z,8.30
2019-04-04T04:55:15.190Z,8.20
2019-04-04T04:57:45.371Z,8.20
2019-04-04T05:00:16.672Z,8.30
2019-04-04T05:02:47.068Z,8.40
2019-04-04T05:05:17.241Z,8.40
2019-04-04T05:07:47.413Z,8.50
2019-04-04T05:10:17.681Z,8.40
2019-04-04T05:12:47.867Z,8.30
2019-04-04T05:15:18.057Z,8.30
2019-04-04T05:17:48.220Z,8.30
2019-04-04T05:20:18.428Z,8.40
2019-04-04T05:22:48.621Z,8.40
2019-04-04T05:25:18.795Z,8.20
2019-04-04T05:27:49.044Z,8.20
2019-04-04T05:30:20.440Z,8.30
2019-04-04T05:32:53.145Z,8.30
2019-04-04T05:35:22.818Z,8.30
2019-04-04T05:37:53.149Z,8.30
2019-04-04T05:40:24.174Z,8.20
2019-04-04T05:42:54.528Z,8.00
2019-04-04T05:45:24.789Z,8.00
2019-04-04T05:47:56.329Z,8.00
2019-04-04T05:50:26.893Z,8.10
2019-04-04T05:52:57.120Z,8.00
2019-04-04T05:55:27.331Z,8.10
2019-04-04T05:57:57.789Z,8.10
2019-04-04T06:00:28.330Z,8.20
2019-04-04T06:02:58.608Z,8.20
2019-04-04T06:05:31.670Z,8.10
2019-04-04T06:08:00.689Z,8.00
2019-04-04T06:10:31.239Z,7.80
2019-04-04T06:13:01.530Z,7.80
2019-04-04T06:15:32.169Z,7.80
2019-04-04T06:18:03.092Z,7.90
2019-04-04T06:20:33.365Z,8.00
2019-04-04T06:23:03.624Z,8.10
2019-04-04T06:25:35.793Z,8.00
2019-04-04T06:28:06.188Z,7.80
2019-04-04T06:30:43.022Z,7.90
2019-04-04T06:33:08.940Z,7.90
2019-04-04T06:35:39.970Z,8.10
2019-04-04T06:38:10.253Z,8.20
2019-04-04T06:40:43.201Z,8.00
2019-04-04T06:43:13.412Z,8.00
2019-04-04T06:45:46.220Z,8.10
2019-04-04T06:48:15.573Z,8.00
2019-04-04T06:50:45.757Z,8.00
2019-04-04T06:53:15.933Z,7.90
2019-04-04T06:55:46.222Z,8.00
2019-04-04T06:58:17.209Z,8.00
2019-04-04T07:00:50.006Z,8.00
2019-04-04T07:03:19.494Z,8.10
2019-04-04T07:05:49.676Z,8.20
2019-04-04T07:08:19.914Z,8.20
2019-04-04T07:10:57.762Z,8.20
2019-04-04T07:13:26.895Z,8.10
2019-04-04T07:16:13.846Z,8.00
2019-04-04T07:18:44.049Z,8.10
2019-04-04T07:21:14.350Z,7.90
2019-04-04T07:23:44.608Z,7.90
2019-04-04T07:26:15.038Z,7.90
2019-04-04T07:28:45.329Z,8.00
2019-04-04T07:31:16.180Z,8.00
2019-04-04T07:33:46.525Z,8.20
2019-04-04T07:36:18.174Z,8.30
2019-04-04T07:38:48.685Z,8.30
2019-04-04T07:41:18.840Z,8.40
2019-04-04T07:43:51.190Z,8.40
2019-04-04T07:46:20.911Z,8.10
2019-04-04T07:48:51.679Z,8.10
2019-04-04T07:51:22.469Z,8.10
2019-04-04T07:53:52.668Z,8.20
2019-04-04T07:56:22.836Z,8.20
2019-04-04T07:58:53.077Z,8.20
2019-04-04T08:01:23.248Z,8.30
2019-04-04T08:03:56.863Z,8.30
2019-04-04T08:06:27.041Z,8.20
2019-04-04T08:08:57.254Z,8.00
2019-04-04T08:11:27.457Z,8.00
2019-04-04T08:13:57.741Z,8.10
2019-04-04T08:16:27.919Z,8.20
2019-04-04T08:18:58.232Z,8.10
2019-04-04T08:21:28.794Z,8.00
2019-04-04T08:23:59.077Z,8.00
2019-04-04T08:26:29.258Z,8.20
2019-04-04T08:28:59.462Z,8.20
2019-04-04T08:31:29.741Z,8.20
2019-04-04T08:33:59.965Z,8.10
2019-04-04T08:36:30.260Z,8.10
2019-04-04T08:39:00.448Z,8.20
2019-04-04T08:41:30.636Z,8.20
2019-04-04T08:44:00.910Z,8.20
2019-04-04T08:46:31.164Z,8.20
2019-04-04T08:49:02.701Z,8.10
2019-04-04T08:51:32.933Z,8.20
2019-04-04T08:54:03.287Z,8.30
2019-04-04T08:56:33.541Z,8.20
2019-04-04T08:59:03.756Z,8.30
2019-04-04T09:01:33.933Z,8.50
2019-04-04T09:04:04.264Z,8.50
2019-04-04T09:06:34.555Z,8.60
2019-04-04T09:09:06.570Z,8.60
2019-04-04T09:11:36.835Z,8.50
2019-04-04T09:14:07.120Z,8.50
2019-04-04T09:16:37.294Z,8.40
2019-04-04T09:19:07.555Z,8.50
2019-04-04T09:21:37.805Z,8.50
2019-04-04T09:24:08.092Z,8.60
2019-04-04T09:26:38.338Z,8.70
2019-04-04T09:29:08.565Z,8.70
2019-04-04T09:31:38.745Z,8.80
2019-04-04T09:34:09.017Z,8.70
2019-04-04T09:36:39.266Z,8.70
2019-04-04T09:39:09.548Z,8.60
2019-04-04T09:41:39.751Z,8.60
2019-04-04T09:44:09.950Z,8.60
2019-04-04T09:46:40.217Z,8.60
2019-04-04T09:49:12.856Z,8.50
2019-04-04T09:51:42.438Z,8.50
2019-04-04T09:54:12.750Z,8.50
2019-04-04T09:56:42.941Z,8.60
2019-04-04T09:59:13.225Z,8.60
2019-04-04T10:01:43.493Z,8.60
2019-04-04T10:04:13.680Z,8.50
2019-04-04T10:06:43.894Z,8.50
2019-04-04T10:09:15.825Z,8.40
2019-04-04T10:11:46.307Z,8.30
2019-04-04T10:14:16.482Z,8.30
2019-04-04T10:16:46.690Z,8.30
2019-04-04T10:19:16.857Z,8.30
2019-04-04T10:21:47.080Z,8.40
2019-04-04T10:24:17.273Z,8.40
2019-04-04T10:26:47.526Z,8.60
2019-04-04T10:29:17.717Z,8.60
2019-04-04T10:31:47.951Z,8.20
2019-04-04T10:34:18.237Z,8.30
2019-04-04T10:36:48.496Z,8.50
2019-04-04T10:39:28.347Z,8.60
2019-04-04T10:41:50.687Z,8.70
2019-04-04T10:44:20.948Z,8.80
2019-04-04T10:46:51.656Z,8.80
2019-04-04T10:49:21.913Z,8.80
2019-04-04T10:51:52.276Z,8.70
2019-04-04T10:54:22.487Z,8.70
2019-04-04T10:56:52.768Z,8.70
2019-04-04T10:59:23.033Z,8.60
2019-04-04T11:01:53.301Z,8.70
2019-04-04T11:04:23.468Z,8.50
2019-04-04T11:06:53.667Z,8.60
2019-04-04T11:09:23.845Z,8.70
2019-04-04T11:11:54.032Z,8.90
2019-04-04T11:14:25.254Z,8.80
2019-04-04T11:16:55.605Z,8.90
2019-04-04T11:19:31.266Z,8.70
2019-04-04T11:21:57.698Z,8.60
2019-04-04T11:24:27.941Z,8.70
2019-04-04T11:26:58.201Z,8.70
2019-04-04T11:29:28.380Z,8.70
2019-04-04T11:31:58.580Z,8.70
2019-04-04T11:34:28.811Z,8.80
2019-04-04T11:36:59.060Z,8.80
2019-04-04T11:39:29.239Z,8.70
2019-04-04T11:41:59.431Z,8.60
2019-04-04T11:44:30.882Z,8.10
2019-04-04T11:47:02.009Z,8.50
2019-04-04T11:49:32.213Z,8.60
2019-04-04T11:52:02.466Z,8.80
2019-04-04T11:54:34.272Z,8.80
2019-04-04T11:57:04.481Z,8.90
2019-04-04T11:59:34.640Z,9.10
2019-04-04T12:02:05.099Z,9.10
2019-04-04T12:04:35.262Z,9.10
2019-04-04T12:07:05.537Z,9.20
2019-04-04T12:09:35.716Z,8.90
2019-04-04T12:12:05.998Z,8.90
2019-04-04T12:14:36.246Z,9.00
2019-04-04T12:17:06.477Z,8.90
2019-04-04T12:19:36.624Z,8.80
2019-04-04T12:22:06.865Z,8.70
2019-04-04T12:24:37.088Z,8.80
2019-04-04T12:27:07.265Z,8.90
2019-04-04T12:29:37.573Z,8.90
2019-04-04T12:32:07.777Z,8.90
2019-04-04T12:34:37.957Z,8.90
2019-04-04T12:37:08.211Z,9.00
2019-04-04T12:39:38.444Z,8.90
2019-04-04T12:42:08.656Z,9.00
2019-04-04T12:44:38.894Z,8.80
2019-04-04T12:47:09.065Z,8.80
2019-04-04T12:49:39.233Z,8.60
2019-04-04T12:52:09.482Z,8.70
2019-04-04T12:54:39.650Z,8.60
2019-04-04T12:57:09.812Z,8.60
2019-04-04T12:59:40.089Z,8.40
2019-04-04T13:02:10.370Z,8.30
2019-04-04T13:04:40.524Z,8.60
2019-04-04T13:07:10.704Z,8.80
2019-04-04T13:09:40.878Z,8.90
2019-04-04T13:12:11.105Z,8.90
2019-04-04T13:14:41.333Z,9.00
2019-04-04T13:17:11.527Z,8.80
2019-04-04T13:19:41.744Z,8.80
2019-04-04T13:22:12.003Z,8.80
2019-04-04T13:24:42.240Z,8.90
2019-04-04T13:27:12.485Z,8.60
2019-04-04T13:29:42.692Z,8.50
2019-04-04T13:32:12.859Z,8.40
2019-04-04T13:34:43.100Z,8.20
2019-04-04T13:37:16.081Z,8.40
2019-04-04T13:39:46.267Z,8.40
2019-04-04T13:42:16.461Z,8.50
2019-04-04T13:44:46.716Z,8.60
2019-04-04T13:47:16.976Z,8.70
2019-04-04T13:49:47.149Z,8.90
2019-04-04T13:52:17.445Z,8.90
2019-04-04T13:54:47.681Z,8.90
2019-04-04T13:57:17.890Z,8.70
2019-04-04T13:59:48.153Z,8.80
2019-04-04T14:02:18.357Z,8.80
2019-04-04T14:04:48.523Z,8.90
2019-04-04T14:07:18.725Z,8.60
2019-04-04T14:09:48.973Z,8.70
2019-04-04T14:12:19.213Z,8.90
2019-04-04T14:14:49.385Z,8.90
2019-04-04T14:17:19.687Z,9.00
2019-04-04T14:19:49.957Z,8.90
2019-04-04T14:22:20.232Z,8.80
2019-04-04T14:24:50.439Z,8.80
2019-04-04T14:27:20.683Z,8.90
2019-04-04T14:29:50.848Z,8.80
2019-04-04T14:32:21.381Z,8.60
2019-04-04T14:34:51.680Z,8.70
2019-04-04T14:37:21.845Z,8.70
2019-04-04T14:39:52.086Z,8.60
2019-04-04T14:42:22.376Z,8.80
2019-04-04T14:44:52.636Z,8.90
2019-04-04T14:47:22.931Z,8.90
2019-04-04T14:49:53.108Z,8.90
2019-04-04T14:52:24.252Z,9.00
2019-04-04T14:54:54.552Z,9.00
2019-04-04T14:57:24.749Z,9.00
2019-04-04T14:59:55.012Z,8.80
2019-04-04T15:02:25.349Z,9.10
2019-04-04T15:04:55.594Z,9.10
2019-04-04T15:07:25.748Z,8.80
2019-04-04T15:09:55.942Z,8.90
2019-04-04T15:12:26.126Z,9.00
2019-04-04T15:14:56.406Z,9.00
2019-04-04T15:17:26.573Z,9.00
2019-04-04T15:19:57.044Z,9.10
2019-04-04T15:22:27.265Z,9.10
2019-04-04T15:24:57.539Z,9.20
2019-04-04T15:27:27.784Z,9.40
2019-04-04T15:29:58.142Z,9.50
2019-04-04T15:32:28.570Z,9.60
2019-04-04T15:34:58.868Z,9.20
2019-04-04T15:37:29.028Z,9.10
2019-04-04T15:39:59.290Z,9.00
2019-04-04T15:42:29.576Z,8.90
2019-04-04T15:44:59.859Z,9.10
2019-04-04T15:47:30.181Z,9.30
2019-04-04T15:50:00.516Z,9.30
2019-04-04T15:52:31.079Z,9.20
2019-04-04T15:55:01.388Z,9.20
2019-04-04T15:57:31.887Z,9.10
2019-04-04T16:00:03.508Z,9.30
2019-04-04T16:02:33.800Z,9.40
2019-04-04T16:05:04.456Z,9.50
2019-04-04T16:07:34.632Z,9.40
2019-04-04T16:10:05.328Z,9.30
2019-04-04T16:12:35.641Z,9.40
2019-04-04T16:15:05.911Z,9.50
2019-04-04T16:17:36.249Z,9.50
2019-04-04T16:20:06.682Z,9.60
2019-04-04T16:22:36.964Z,9.50
2019-04-04T16:25:07.396Z,9.50
2019-04-04T16:27:37.659Z,9.40
2019-04-04T16:30:08.631Z,9.50
2019-04-04T16:32:38.896Z,9.50
2019-04-04T16:35:09.275Z,9.50
2019-04-04T16:37:39.597Z,9.60
2019-04-04T16:40:10.536Z,9.50
2019-04-04T16:42:40.819Z,9.40
2019-04-04T16:45:11.113Z,9.20
2019-04-04T16:47:41.272Z,9.10
2019-04-04T16:50:11.672Z,9.00
2019-04-04T16:52:41.949Z,9.20
2019-04-04T16:55:12.345Z,9.30
2019-04-04T16:57:43.387Z,9.20
2019-04-04T17:00:15.294Z,9.20
2019-04-04T17:02:45.466Z,9.00
2019-04-04T17:05:16.140Z,9.20
2019-04-04T17:07:46.369Z,9.30
2019-04-04T17:10:18.836Z,9.30
2019-04-04T17:12:49.100Z,9.30
2019-04-04T17:15:19.302Z,9.20
2019-04-04T17:17:49.503Z,9.10
2019-04-04T17:20:20.904Z,9.20
2019-04-04T17:22:51.171Z,9.10
2019-04-04T17:25:21.362Z,9.10
2019-04-04T17:27:51.552Z,9.00
2019-04-04T17:30:22.103Z,9.10
2019-04-04T17:32:52.372Z,9.10
2019-04-04T17:35:22.580Z,9.10
2019-04-04T17:37:52.751Z,9.20
2019-04-04T17:40:23.173Z,9.10
2019-04-04T17:42:53.397Z,9.10
2019-04-04T17:45:24.077Z,9.00
2019-04-04T17:47:54.597Z,9.00
2019-04-04T17:50:25.335Z,9.10
2019-04-04T17:52:55.636Z,9.00
2019-04-04T17:55:26.372Z,8.90
2019-04-04T17:57:56.691Z,8.80
2019-04-04T18:00:28.285Z,8.80
2019-04-04T18:02:58.488Z,8.60
2019-04-04T18:05:28.773Z,8.80
2019-04-04T18:07:59.056Z,8.80
2019-04-04T18:10:29.354Z,8.80
2019-04-04T18:12:59.557Z,8.80
2019-04-04T18:15:29.762Z,8.90
2019-04-04T18:18:00.060Z,8.90
2019-04-04T18:20:30.375Z,8.90
2019-04-04T18:23:00.663Z,8.90
2019-04-04T18:25:30.913Z,8.80
2019-04-04T18:28:01.216Z,8.70
2019-04-04T18:30:31.445Z,8.80
2019-04-04T18:33:01.693Z,8.70
2019-04-04T18:35:32.445Z,8.80
2019-04-04T18:38:02.768Z,8.90
2019-04-04T18:40:33.045Z,8.90
2019-04-04T18:43:03.346Z,8.80
2019-04-04T18:45:33.685Z,8.80
2019-04-04T18:48:04.508Z,8.70
2019-04-04T18:50:34.795Z,8.50
2019-04-04T18:53:05.195Z,8.70
2019-04-04T18:55:35.416Z,8.50
2019-04-04T18:58:05.712Z,8.60
2019-04-04T19:00:36.721Z,8.60
2019-04-04T19:03:07.022Z,8.60
2019-04-04T19:05:37.244Z,8.70
2019-04-04T19:08:07.832Z,8.80
2019-04-04T19:10:38.192Z,8.80
2019-04-04T19:13:08.459Z,8.80
2019-04-04T19:15:38.801Z,8.80
2019-04-04T19:18:09.019Z,8.50
2019-04-04T19:20:39.336Z,8.60
2019-04-04T19:23:09.516Z,8.40
2019-04-04T19:25:39.813Z,8.50
2019-04-04T19:28:10.150Z,8.50
2019-04-04T19:30:40.351Z,8.40
2019-04-04T19:33:10.650Z,8.30
2019-04-04T19:35:40.927Z,8.30
2019-04-04T19:38:11.204Z,8.30
2019-04-04T19:40:41.403Z,8.30
2019-04-04T19:43:17.982Z,8.30
2019-04-04T19:45:43.591Z,8.30
2019-04-04T19:48:13.845Z,8.40
2019-04-04T19:50:44.154Z,8.40
2019-04-04T19:53:14.427Z,8.40
2019-04-04T19:55:44.718Z,8.40
2019-04-04T19:58:14.900Z,8.40
2019-04-04T20:00:45.156Z,8.40
2019-04-04T20:03:17.908Z,8.40
2019-04-04T20:05:48.167Z,8.50
2019-04-04T20:08:18.471Z,8.50
2019-04-04T20:10:48.760Z,8.50
2019-04-04T20:13:30.204Z,8.50
2019-04-04T20:15:50.949Z,8.30
2019-04-04T20:18:21.282Z,8.30
2019-04-04T20:20:51.609Z,8.30
2019-04-04T20:23:21.990Z,8.30
2019-04-04T20:25:52.328Z,8.20
2019-04-04T20:28:22.614Z,8.10
2019-04-04T20:30:52.925Z,8.20
2019-04-04T20:33:23.249Z,8.20
2019-04-04T20:35:53.545Z,8.20
2019-04-04T20:38:23.895Z,8.10
2019-04-04T20:40:54.144Z,8.20
2019-04-04T20:43:24.468Z,8.20
2019-04-04T20:45:54.782Z,8.10
2019-04-04T20:48:25.017Z,8.10
2019-04-04T20:50:55.301Z,8.10
2019-04-04T20:53:25.609Z,8.00
2019-04-04T20:55:55.870Z,8.20
2019-04-04T20:58:26.190Z,8.10
2019-04-04T21:00:56.443Z,8.10
2019-04-04T21:03:26.669Z,8.10
2019-04-04T21:05:56.865Z,8.20
2019-04-04T21:08:27.200Z,8.20
2019-04-04T21:10:57.425Z,8.00
2019-04-04T21:13:27.693Z,8.10
2019-04-04T21:15:57.897Z,8.10
2019-04-04T21:18:28.312Z,8.10
2019-04-04T21:20:58.513Z,8.20
2019-04-04T21:23:28.696Z,8.20
2019-04-04T21:25:58.931Z,8.00
2019-04-04T21:28:29.196Z,8.10
2019-04-04T21:30:59.504Z,8.30
2019-04-04T21:33:29.709Z,8.20
2019-04-04T21:35:59.970Z,8.30
2019-04-04T21:38:30.238Z,8.30
2019-04-04T21:41:00.491Z,8.20
2019-04-04T21:43:30.690Z,8.20
2019-04-04T21:46:00.962Z,8.30
2019-04-04T21:48:31.173Z,8.40
2019-04-04T21:51:01.385Z,8.30
2019-04-04T21:53:31.567Z,8.30
2019-04-04T21:56:01.851Z,8.20
2019-04-04T21:58:32.064Z,8.30
2019-04-04T22:01:02.493Z,8.30
2019-04-04T22:03:32.770Z,8.30
2019-04-04T22:06:03.010Z,8.30
2019-04-04T22:08:33.232Z,8.30
2019-04-04T22:11:03.721Z,8.30
2019-04-04T22:13:34.002Z,8.40
2019-04-04T22:16:04.485Z,8.40
2019-04-04T22:18:34.691Z,8.40
2019-04-04T22:21:05.016Z,8.40
2019-04-04T22:23:35.203Z,8.40
2019-04-04T22:26:05.448Z,8.40
2019-04-04T22:28:35.741Z,8.30
2019-04-04T22:31:05.975Z,8.30
2019-04-04T22:33:36.239Z,8.40
2019-04-04T22:36:06.475Z,8.40
2019-04-04T22:38:36.703Z,8.50
2019-04-04T22:41:06.973Z,8.50
2019-04-04T22:43:37.221Z,8.50
2019-04-04T22:46:07.410Z,8.40
2019-04-04T22:48:37.691Z,8.40
2019-04-04T22:51:07.855Z,8.30
2019-04-04T22:53:38.117Z,8.40
2019-04-04T22:56:08.445Z,8.40
2019-04-04T22:58:38.717Z,8.40
2019-04-04T23:01:08.896Z,8.40
2019-04-04T23:03:39.172Z,8.40
2019-04-04T23:06:09.636Z,8.30
2019-04-04T23:08:39.925Z,8.40
2019-04-04T23:11:10.209Z,8.40
2019-04-04T23:13:40.414Z,8.40
2019-04-04T23:16:10.758Z,8.40
2019-04-04T23:18:41.009Z,8.40
2019-04-04T23:21:11.229Z,8.40
2019-04-04T23:23:41.420Z,8.40
2019-04-04T23:26:11.660Z,8.30
2019-04-04T23:28:41.972Z,8.40
2019-04-04T23:31:15.856Z,8.40
2019-04-04T23:33:46.172Z,8.40
2019-04-04T23:36:16.430Z,8.40
2019-04-04T23:38:46.782Z,8.40
2019-04-04T23:41:17.046Z,8.50
2019-04-04T23:43:47.248Z,8.40
2019-04-04T23:46:17.556Z,8.50
2019-04-04T23:48:47.737Z,8.50
2019-04-04T23:51:17.902Z,8.50
2019-04-04T23:53:48.102Z,8.10
2019-04-04T23:56:18.301Z,8.50
2019-04-04T23:58:48.488Z,8.40
